Time;durP1;ratioP1;P1;durP2;ratioP2;P2;SDS_P1;SDS_P2;PMS_P1;PMS_P2;Temp;Humidity;BMP_temperature;BMP_pressure;BME280_temperature;BME280_humidity;BME280_pressure;Samples;Min_cycle;Max_cycle;Signal;HPM_P1;HPM_P2
2023/07/28 00:02:23;;;;;;;0.60;0.60;;;;;;;;;;5013545;28;20430;-74
2023/07/28 00:04:50;;;;;;;0.60;0.60;;;;;;;;;;5021298;28;20443;-72
2023/07/28 00:07:17;;;;;;;0.70;0.70;;;;;;;;;;5021641;28;20832;-73
2023/07/28 00:09:44;;;;;;;0.60;0.60;;;;;;;;;;5022905;28;20903;-72
2023/07/28 00:12:11;;;;;;;0.60;0.60;;;;;;;;;;5021205;28;20430;-74
2023/07/28 00:14:37;;;;;;;0.60;0.60;;;;;;;;;;5013507;28;20975;-71
2023/07/28 00:17:05;;;;;;;0.70;0.70;;;;;;;;;;5024564;28;20440;-72
2023/07/28 00:19:32;;;;;;;0.73;0.73;;;;;;;;;;5006788;28;20475;-73
2023/07/28 00:21:58;;;;;;;0.70;0.70;;;;;;;;;;5014012;28;20439;-74
2023/07/28 00:24:25;;;;;;;0.90;0.90;;;;;;;;;;5025340;28;20440;-72
2023/07/28 00:26:51;;;;;;;0.60;0.60;;;;;;;;;;5024897;28;20441;-72
2023/07/28 00:29:18;;;;;;;0.60;0.60;;;;;;;;;;5013603;28;20436;-74
2023/07/28 00:31:45;;;;;;;0.60;0.60;;;;;;;;;;5011559;28;20474;-73
2023/07/28 00:34:15;;;;;;;0.70;0.70;;;;;;;;;;5013657;28;20441;-72
2023/07/28 00:36:43;;;;;;;0.70;0.70;;;;;;;;;;5012173;28;20444;-71
2023/07/28 00:39:10;;;;;;;0.60;0.60;;;;;;;;;;5006268;28;20483;-71
2023/07/28 00:41:37;;;;;;;0.80;0.77;;;;;;;;;;5022303;28;20429;-71
2023/07/28 00:44:03;;;;;;;0.63;0.63;;;;;;;;;;5023544;28;20464;-73
2023/07/28 00:46:30;;;;;;;0.70;0.70;;;;;;;;;;5019839;28;20457;-71
2023/07/28 00:48:57;;;;;;;0.70;0.70;;;;;;;;;;5023881;28;20792;-73
2023/07/28 00:51:25;;;;;;;0.70;0.70;;;;;;;;;;5007189;28;21047;-72
2023/07/28 00:53:53;;;;;;;0.60;0.60;;;;;;;;;;5003899;28;20468;-73
2023/07/28 00:56:20;;;;;;;0.60;0.60;;;;;;;;;;5024095;28;20435;-74
2023/07/28 00:58:47;;;;;;;0.67;0.67;;;;;;;;;;5022259;28;20473;-73
2023/07/28 01:01:14;;;;;;;0.70;0.70;;;;;;;;;;5028924;28;20459;-71
2023/07/28 01:03:40;;;;;;;0.70;0.70;;;;;;;;;;5010697;28;20532;-72
2023/07/28 01:06:11;;;;;;;0.60;0.60;;;;;;;;;;5013577;28;20441;-71
2023/07/28 01:08:42;;;;;;;1.17;1.00;;;;;;;;;;5024174;28;20448;-72
2023/07/28 01:11:08;;;;;;;0.60;0.60;;;;;;;;;;5020977;28;20446;-73
2023/07/28 01:13:35;;;;;;;0.60;0.60;;;;;;;;;;5023740;28;20470;-72
2023/07/28 01:16:01;;;;;;;0.70;0.70;;;;;;;;;;5021638;28;20443;-74
2023/07/28 01:18:28;;;;;;;1.23;1.13;;;;;;;;;;5012265;28;20473;-73
2023/07/28 01:20:56;;;;;;;0.60;0.60;;;;;;;;;;5023175;28;20448;-73
2023/07/28 01:23:28;;;;;;;0.70;0.70;;;;;;;;;;5021340;28;21012;-73
2023/07/28 01:26:02;;;;;;;0.60;0.60;;;;;;;;;;5006747;28;20496;-72
2023/07/28 01:28:31;;;;;;;0.80;0.80;;;;;;;;;;5026327;28;20525;-72
2023/07/28 01:30:58;;;;;;;0.63;0.63;;;;;;;;;;5016512;28;20483;-73
2023/07/28 01:33:25;;;;;;;0.70;0.70;;;;;;;;;;5015032;28;20445;-73
2023/07/28 01:35:51;;;;;;;0.60;0.60;;;;;;;;;;5028781;28;20436;-71
2023/07/28 01:38:18;;;;;;;0.67;0.67;;;;;;;;;;5003378;28;20555;-72
2023/07/28 01:40:45;;;;;;;0.60;0.60;;;;;;;;;;4995634;28;20437;-72
2023/07/28 01:43:11;;;;;;;0.60;0.60;;;;;;;;;;5013448;28;20937;-73
2023/07/28 01:45:39;;;;;;;0.60;0.60;;;;;;;;;;5004264;28;20441;-74
2023/07/28 01:48:08;;;;;;;0.70;0.70;;;;;;;;;;5005912;28;20448;-75
2023/07/28 01:50:34;;;;;;;0.60;0.60;;;;;;;;;;5015054;28;20531;-74
2023/07/28 01:53:01;;;;;;;0.67;0.67;;;;;;;;;;5028170;28;20483;-73
2023/07/28 01:55:28;;;;;;;0.70;0.70;;;;;;;;;;5016233;28;20428;-74
2023/07/28 01:57:55;;;;;;;0.60;0.60;;;;;;;;;;5012348;28;20855;-74
2023/07/28 02:00:23;;;;;;;0.60;0.60;;;;;;;;;;5015547;28;20811;-73
2023/07/28 02:02:51;;;;;;;0.70;0.70;;;;;;;;;;5028398;28;20449;-71
2023/07/28 02:05:18;;;;;;;0.60;0.60;;;;;;;;;;4996311;28;20448;-73
2023/07/28 02:07:44;;;;;;;0.60;0.60;;;;;;;;;;5026605;28;20480;-72
2023/07/28 02:10:11;;;;;;;0.60;0.60;;;;;;;;;;5015352;28;20440;-71
2023/07/28 02:12:38;;;;;;;0.70;0.70;;;;;;;;;;5023613;28;20844;-72
2023/07/28 02:15:05;;;;;;;0.60;0.60;;;;;;;;;;5024391;28;20464;-75
2023/07/28 02:17:32;;;;;;;0.60;0.60;;;;;;;;;;5010056;28;20527;-73
2023/07/28 02:20:03;;;;;;;0.63;0.63;;;;;;;;;;5010162;28;20922;-72
2023/07/28 02:22:30;;;;;;;0.77;0.77;;;;;;;;;;5025690;28;20881;-73
2023/07/28 02:25:01;;;;;;;0.60;0.60;;;;;;;;;;5022740;28;20443;-76
2023/07/28 02:27:28;;;;;;;0.60;0.60;;;;;;;;;;5015975;28;20432;-72
2023/07/28 02:29:55;;;;;;;0.60;0.60;;;;;;;;;;5023349;28;20592;-74
2023/07/28 02:32:22;;;;;;;0.60;0.60;;;;;;;;;;5014320;28;20472;-74
2023/07/28 02:34:49;;;;;;;0.70;0.70;;;;;;;;;;5021550;28;20438;-73
2023/07/28 02:37:17;;;;;;;0.60;0.60;;;;;;;;;;5006509;28;20470;-71
2023/07/28 02:39:43;;;;;;;0.60;0.60;;;;;;;;;;5021677;28;20546;-74
2023/07/28 02:42:10;;;;;;;0.70;0.70;;;;;;;;;;5008627;28;20447;-74
2023/07/28 02:44:36;;;;;;;0.70;0.70;;;;;;;;;;5028853;28;20488;-74
2023/07/28 02:47:03;;;;;;;0.70;0.70;;;;;;;;;;5009887;28;20435;-74
2023/07/28 02:49:30;;;;;;;0.70;0.70;;;;;;;;;;5015073;28;20532;-74
2023/07/28 02:51:56;;;;;;;0.60;0.60;;;;;;;;;;5011444;28;20507;-74
2023/07/28 02:54:25;;;;;;;0.80;0.80;;;;;;;;;;5006851;28;20485;-74
2023/07/28 02:56:51;;;;;;;0.70;0.70;;;;;;;;;;5029085;28;20457;-74
2023/07/28 02:59:18;;;;;;;0.60;0.60;;;;;;;;;;5024677;28;20464;-74
2023/07/28 03:01:45;;;;;;;0.70;0.70;;;;;;;;;;5007800;28;20471;-75
2023/07/28 03:04:12;;;;;;;0.60;0.60;;;;;;;;;;5014394;28;20547;-75
2023/07/28 03:06:58;;;;;;;0.60;0.60;;;;;;;;;;5025843;28;20521;-74
2023/07/28 03:09:27;;;;;;;0.60;0.60;;;;;;;;;;5010944;28;20910;-74
2023/07/28 03:11:59;;;;;;;0.60;0.60;;;;;;;;;;5023832;28;20431;-74
2023/07/28 03:14:28;;;;;;;0.70;0.70;;;;;;;;;;5009572;28;20523;-74
2023/07/28 03:16:55;;;;;;;0.70;0.70;;;;;;;;;;5009149;28;20528;-74
2023/07/28 03:19:21;;;;;;;0.60;0.60;;;;;;;;;;4998481;28;20475;-74
2023/07/28 03:21:48;;;;;;;0.60;0.60;;;;;;;;;;5014333;28;20456;-72
2023/07/28 03:24:15;;;;;;;0.60;0.60;;;;;;;;;;5024939;28;20533;-74
2023/07/28 03:26:44;;;;;;;0.60;0.60;;;;;;;;;;5010641;28;20445;-72
2023/07/28 03:29:10;;;;;;;0.70;0.70;;;;;;;;;;5012801;28;20438;-73
2023/07/28 03:31:37;;;;;;;0.70;0.70;;;;;;;;;;5012356;28;20458;-73
2023/07/28 03:34:05;;;;;;;0.60;0.60;;;;;;;;;;5020066;28;20522;-73
2023/07/28 03:36:31;;;;;;;0.60;0.60;;;;;;;;;;5023662;28;20498;-73
2023/07/28 03:39:00;;;;;;;0.60;0.60;;;;;;;;;;5022085;28;20480;-74
2023/07/28 03:41:27;;;;;;;0.60;0.60;;;;;;;;;;5003198;28;20434;-74
2023/07/28 03:43:55;;;;;;;0.60;0.60;;;;;;;;;;5014093;28;20945;-73
2023/07/28 03:46:22;;;;;;;0.60;0.60;;;;;;;;;;5029450;28;20438;-73
2023/07/28 03:48:49;;;;;;;0.77;0.77;;;;;;;;;;5008829;28;20495;-73
2023/07/28 03:51:15;;;;;;;0.60;0.60;;;;;;;;;;5011111;28;20478;-74
2023/07/28 03:53:42;;;;;;;0.60;0.60;;;;;;;;;;5020530;28;20468;-73
2023/07/28 03:56:09;;;;;;;0.70;0.70;;;;;;;;;;5024624;28;20434;-74
2023/07/28 03:58:36;;;;;;;0.60;0.60;;;;;;;;;;5013503;28;20534;-74
2023/07/28 04:01:07;;;;;;;0.60;0.60;;;;;;;;;;5009642;28;20480;-74
2023/07/28 04:03:34;;;;;;;0.70;0.70;;;;;;;;;;4990599;28;20809;-71
2023/07/28 04:06:00;;;;;;;0.60;0.60;;;;;;;;;;5021179;28;20467;-74
2023/07/28 04:08:27;;;;;;;0.60;0.60;;;;;;;;;;5014265;28;20459;-74
2023/07/28 04:10:54;;;;;;;0.60;0.60;;;;;;;;;;5021327;28;20430;-75
2023/07/28 04:13:20;;;;;;;0.60;0.60;;;;;;;;;;5012739;28;20452;-73
2023/07/28 04:15:47;;;;;;;1.00;1.00;;;;;;;;;;5005071;28;20517;-74
2023/07/28 04:18:15;;;;;;;0.67;0.67;;;;;;;;;;4997291;28;20435;-74
2023/07/28 04:20:41;;;;;;;0.60;0.60;;;;;;;;;;5003578;28;20505;-74
2023/07/28 04:23:08;;;;;;;0.60;0.60;;;;;;;;;;5013312;28;20481;-73
2023/07/28 04:25:37;;;;;;;0.60;0.60;;;;;;;;;;5012684;28;20812;-74
2023/07/28 04:28:04;;;;;;;0.60;0.60;;;;;;;;;;4994970;28;20448;-74
2023/07/28 04:30:31;;;;;;;0.70;0.70;;;;;;;;;;5024175;28;20960;-72
2023/07/28 04:32:58;;;;;;;0.60;0.60;;;;;;;;;;5011336;28;20515;-75
2023/07/28 04:35:32;;;;;;;0.70;0.70;;;;;;;;;;4996508;28;20445;-75
2023/07/28 04:38:22;;;;;;;0.60;0.60;;;;;;;;;;5024000;28;20470;-73
2023/07/28 04:40:57;;;;;;;0.60;0.60;;;;;;;;;;5013136;28;20471;-73
2023/07/28 04:43:39;;;;;;;0.60;0.60;;;;;;;;;;5010040;28;20511;-73
2023/07/28 04:46:06;;;;;;;0.63;0.63;;;;;;;;;;5012011;28;20802;-73
2023/07/28 04:48:33;;;;;;;1.20;1.10;;;;;;;;;;5027533;28;20448;-73
2023/07/28 04:51:09;;;;;;;0.60;0.60;;;;;;;;;;5008222;28;20429;-73
2023/07/28 04:54:13;;;;;;;0.70;0.70;;;;;;;;;;5006664;28;20457;-74
2023/07/28 04:56:40;;;;;;;0.70;0.70;;;;;;;;;;5013237;28;20452;-72
2023/07/28 04:59:07;;;;;;;1.57;1.47;;;;;;;;;;5013500;28;20452;-73
2023/07/28 05:01:34;;;;;;;0.70;0.70;;;;;;;;;;5007693;28;20447;-73
2023/07/28 05:04:01;;;;;;;0.60;0.60;;;;;;;;;;5029312;28;20991;-73
2023/07/28 05:06:30;;;;;;;0.60;0.60;;;;;;;;;;5021949;28;20485;-74
2023/07/28 05:08:57;;;;;;;0.80;0.80;;;;;;;;;;5013548;28;20485;-73
2023/07/28 05:11:32;;;;;;;0.60;0.60;;;;;;;;;;5007835;28;20437;-73
2023/07/28 05:13:59;;;;;;;0.60;0.60;;;;;;;;;;5025127;28;20444;-72
2023/07/28 05:16:26;;;;;;;0.70;0.70;;;;;;;;;;5027865;28;20464;-72
2023/07/28 05:19:06;;;;;;;0.60;0.60;;;;;;;;;;5026371;28;20416;-73
2023/07/28 05:21:54;;;;;;;0.60;0.60;;;;;;;;;;5009090;28;20441;-74
2023/07/28 05:24:47;;;;;;;0.60;0.60;;;;;;;;;;5023192;28;20449;-73
2023/07/28 05:27:14;;;;;;;0.60;0.60;;;;;;;;;;5016486;28;20495;-74
2023/07/28 05:29:44;;;;;;;0.60;0.60;;;;;;;;;;5027460;28;20429;-74
2023/07/28 05:32:11;;;;;;;0.60;0.60;;;;;;;;;;5015144;28;20427;-72
2023/07/28 05:34:58;;;;;;;0.60;0.50;;;;;;;;;;5014078;28;20479;-74
2023/07/28 05:37:26;;;;;;;0.60;0.60;;;;;;;;;;5026663;28;20475;-73
2023/07/28 05:39:52;;;;;;;0.60;0.60;;;;;;;;;;5014972;28;21059;-74
2023/07/28 05:42:20;;;;;;;0.60;0.60;;;;;;;;;;5012864;28;21198;-72
2023/07/28 05:44:48;;;;;;;0.60;0.60;;;;;;;;;;5010421;28;20437;-74
2023/07/28 05:47:14;;;;;;;0.60;0.50;;;;;;;;;;5026084;28;20945;-74
2023/07/28 05:49:41;;;;;;;0.60;0.60;;;;;;;;;;5015133;28;20443;-74
2023/07/28 05:52:08;;;;;;;0.60;0.60;;;;;;;;;;5010331;28;20817;-75
2023/07/28 05:54:36;;;;;;;0.60;0.60;;;;;;;;;;5028703;28;20441;-72
2023/07/28 05:57:03;;;;;;;0.60;0.60;;;;;;;;;;5022316;28;20560;-74
2023/07/28 05:59:30;;;;;;;0.60;0.60;;;;;;;;;;5021804;28;20462;-72
2023/07/28 06:01:57;;;;;;;0.70;0.70;;;;;;;;;;5013098;28;20444;-72
2023/07/28 06:04:33;;;;;;;0.60;0.60;;;;;;;;;;5008358;28;20436;-74
2023/07/28 06:07:02;;;;;;;0.70;0.60;;;;;;;;;;5012459;28;20851;-74
2023/07/28 06:09:28;;;;;;;0.60;0.60;;;;;;;;;;5016009;28;20434;-73
2023/07/28 06:11:57;;;;;;;0.60;0.60;;;;;;;;;;5013657;28;20500;-73
2023/07/28 06:14:26;;;;;;;0.70;0.70;;;;;;;;;;5015002;28;20444;-74
2023/07/28 06:16:54;;;;;;;0.70;0.70;;;;;;;;;;5024423;28;21029;-73
2023/07/28 06:19:26;;;;;;;0.70;0.70;;;;;;;;;;5015901;28;20548;-74
2023/07/28 06:21:54;;;;;;;0.70;0.70;;;;;;;;;;5010955;28;20456;-73
2023/07/28 06:24:21;;;;;;;0.60;0.60;;;;;;;;;;5008368;28;20442;-73
2023/07/28 06:26:50;;;;;;;0.60;0.60;;;;;;;;;;5025146;28;20459;-74
2023/07/28 06:29:18;;;;;;;0.60;0.60;;;;;;;;;;5029288;28;20869;-74
2023/07/28 06:31:45;;;;;;;0.60;0.60;;;;;;;;;;5025553;28;20445;-73
2023/07/28 06:34:12;;;;;;;0.60;0.60;;;;;;;;;;5027378;28;20468;-73
2023/07/28 06:36:39;;;;;;;0.60;0.60;;;;;;;;;;5013099;28;20435;-73
2023/07/28 06:39:06;;;;;;;0.67;0.67;;;;;;;;;;5023814;28;20448;-73
2023/07/28 06:41:32;;;;;;;0.63;0.63;;;;;;;;;;4997266;28;20440;-73
2023/07/28 06:44:00;;;;;;;0.60;0.60;;;;;;;;;;5026948;28;21017;-75
2023/07/28 06:46:28;;;;;;;0.60;0.60;;;;;;;;;;5011708;28;20981;-74
2023/07/28 06:48:55;;;;;;;0.70;0.70;;;;;;;;;;5025166;28;20426;-74
2023/07/28 06:51:22;;;;;;;0.70;0.70;;;;;;;;;;4991943;28;20419;-74
2023/07/28 06:53:49;;;;;;;0.60;0.60;;;;;;;;;;5024071;28;20518;-74
2023/07/28 06:56:16;;;;;;;0.60;0.60;;;;;;;;;;5024406;28;20452;-72
2023/07/28 06:58:42;;;;;;;0.60;0.60;;;;;;;;;;5025654;28;20415;-74
2023/07/28 07:01:21;;;;;;;0.70;0.67;;;;;;;;;;5021677;28;20446;-74
2023/07/28 07:03:50;;;;;;;0.60;0.60;;;;;;;;;;5002666;28;20444;-74
2023/07/28 07:06:17;;;;;;;0.80;0.80;;;;;;;;;;5013675;28;20819;-71
2023/07/28 07:08:43;;;;;;;0.60;0.60;;;;;;;;;;5013722;28;21137;-73
2023/07/28 07:11:11;;;;;;;0.60;0.60;;;;;;;;;;5022969;28;20753;-74
2023/07/28 07:13:37;;;;;;;0.70;0.70;;;;;;;;;;5025683;28;20428;-74
2023/07/28 07:16:06;;;;;;;0.60;0.60;;;;;;;;;;5013466;28;20464;-73
2023/07/28 07:18:33;;;;;;;0.60;0.60;;;;;;;;;;5022540;28;20455;-73
2023/07/28 07:21:06;;;;;;;0.60;0.60;;;;;;;;;;5025313;28;20532;-73
2023/07/28 07:23:32;;;;;;;0.60;0.53;;;;;;;;;;5027133;28;20541;-74
2023/07/28 07:25:59;;;;;;;0.60;0.60;;;;;;;;;;5005041;28;20408;-74
2023/07/28 07:28:25;;;;;;;0.70;0.70;;;;;;;;;;5025199;28;20511;-74
2023/07/28 07:30:53;;;;;;;0.60;0.60;;;;;;;;;;5010824;28;20412;-74
2023/07/28 07:33:19;;;;;;;0.60;0.60;;;;;;;;;;5024421;28;20493;-74
2023/07/28 07:35:46;;;;;;;0.70;0.70;;;;;;;;;;5030072;28;20437;-74
2023/07/28 07:38:14;;;;;;;0.60;0.60;;;;;;;;;;5006420;28;20866;-74
2023/07/28 07:40:41;;;;;;;0.60;0.60;;;;;;;;;;5025449;28;20523;-74
2023/07/28 07:43:07;;;;;;;0.60;0.60;;;;;;;;;;5021805;28;20476;-73
2023/07/28 07:45:34;;;;;;;0.70;0.70;;;;;;;;;;5025439;28;20403;-74
2023/07/28 07:48:00;;;;;;;0.70;0.70;;;;;;;;;;5024321;28;20414;-74
2023/07/28 07:50:27;;;;;;;0.60;0.60;;;;;;;;;;5023473;28;20917;-73
2023/07/28 07:52:54;;;;;;;0.67;0.67;;;;;;;;;;5018939;28;20541;-75
2023/07/28 07:55:21;;;;;;;0.60;0.60;;;;;;;;;;5007003;28;20449;-75
2023/07/28 07:57:48;;;;;;;0.80;0.70;;;;;;;;;;5007865;28;20496;-75
2023/07/28 08:00:15;;;;;;;0.70;0.70;;;;;;;;;;5024927;28;20908;-74
2023/07/28 08:02:42;;;;;;;0.80;0.80;;;;;;;;;;5025711;28;20796;-75
2023/07/28 08:05:12;;;;;;;0.90;0.90;;;;;;;;;;5022178;28;20912;-74
2023/07/28 08:07:39;;;;;;;16.83;1.23;;;;;;;;;;5025718;28;20452;-75
2023/07/28 08:10:06;;;;;;;0.60;0.60;;;;;;;;;;5029207;28;20433;-74
2023/07/28 08:12:34;;;;;;;0.60;0.60;;;;;;;;;;5021151;28;20475;-73
2023/07/28 08:15:01;;;;;;;0.60;0.60;;;;;;;;;;5012876;28;20441;-74
2023/07/28 08:17:28;;;;;;;0.80;0.80;;;;;;;;;;5023162;28;20425;-74
2023/07/28 08:19:54;;;;;;;1.27;0.97;;;;;;;;;;5023541;28;20423;-74
2023/07/28 08:22:21;;;;;;;0.87;0.87;;;;;;;;;;5022571;28;20514;-74
2023/07/28 08:24:47;;;;;;;0.60;0.60;;;;;;;;;;5025702;28;20492;-75
2023/07/28 08:27:14;;;;;;;0.60;0.60;;;;;;;;;;5024782;28;20400;-77
2023/07/28 08:29:42;;;;;;;0.60;0.60;;;;;;;;;;5013463;28;20556;-76
2023/07/28 08:32:09;;;;;;;0.60;0.60;;;;;;;;;;5022056;28;20407;-75
2023/07/28 08:34:36;;;;;;;0.60;0.60;;;;;;;;;;5010845;28;20437;-75
2023/07/28 08:37:02;;;;;;;0.70;0.70;;;;;;;;;;5023291;28;20423;-75
2023/07/28 08:39:29;;;;;;;0.60;0.60;;;;;;;;;;5019719;28;21120;-75
2023/07/28 08:41:59;;;;;;;0.70;0.70;;;;;;;;;;5024561;28;20451;-74
2023/07/28 08:44:26;;;;;;;0.60;0.53;;;;;;;;;;4999598;28;20455;-76
2023/07/28 08:46:54;;;;;;;0.70;0.60;;;;;;;;;;5019729;28;20440;-75
2023/07/28 08:49:21;;;;;;;0.70;0.70;;;;;;;;;;5025303;28;20403;-75
2023/07/28 08:51:48;;;;;;;0.60;0.60;;;;;;;;;;5018912;28;20776;-76
2023/07/28 08:54:16;;;;;;;0.73;0.70;;;;;;;;;;5022723;28;20437;-76
2023/07/28 08:56:43;;;;;;;1.13;1.03;;;;;;;;;;5022513;28;20408;-76
2023/07/28 08:59:09;;;;;;;1.23;0.83;;;;;;;;;;5021020;28;20517;-74
2023/07/28 09:01:38;;;;;;;0.70;0.67;;;;;;;;;;5024130;28;20473;-75
2023/07/28 09:04:10;;;;;;;0.60;0.60;;;;;;;;;;5024298;28;20443;-73
2023/07/28 09:06:37;;;;;;;0.70;0.60;;;;;;;;;;5020061;28;20449;-74
2023/07/28 09:09:06;;;;;;;0.60;0.50;;;;;;;;;;5008218;28;20449;-75
2023/07/28 09:11:33;;;;;;;0.63;0.60;;;;;;;;;;5026434;28;20429;-76
2023/07/28 09:14:00;;;;;;;1.17;1.07;;;;;;;;;;5014328;28;20487;-74
2023/07/28 09:16:29;;;;;;;0.60;0.60;;;;;;;;;;5022357;28;20853;-76
2023/07/28 09:19:03;;;;;;;0.70;0.70;;;;;;;;;;5021169;28;20441;-74
2023/07/28 09:21:31;;;;;;;0.60;0.50;;;;;;;;;;5025195;28;20491;-74
2023/07/28 09:23:59;;;;;;;0.73;0.70;;;;;;;;;;5025924;28;20524;-75
2023/07/28 09:26:35;;;;;;;0.70;0.60;;;;;;;;;;5023365;28;20969;-75
2023/07/28 09:29:10;;;;;;;1.00;0.60;;;;;;;;;;5007322;28;20449;-74
2023/07/28 09:31:36;;;;;;;0.70;0.60;;;;;;;;;;4995406;28;20538;-75
2023/07/28 09:34:05;;;;;;;0.70;0.60;;;;;;;;;;5011267;28;20489;-75
2023/07/28 09:36:33;;;;;;;0.67;0.50;;;;;;;;;;5010508;28;20747;-75
2023/07/28 09:39:01;;;;;;;0.70;0.60;;;;;;;;;;5023297;28;20453;-75
2023/07/28 09:41:29;;;;;;;0.80;0.77;;;;;;;;;;5023368;28;20477;-76
2023/07/28 09:43:57;;;;;;;0.70;0.60;;;;;;;;;;5012372;28;20532;-76
2023/07/28 09:46:23;;;;;;;;;;;;;;;;;;5004784;28;20384;-75
2023/07/28 09:48:50;;;;;;;;;;;;;;;;;;5016876;28;19931;-75
2023/07/28 09:51:17;;;;;;;;;;;;;;;;;;5011006;28;20020;-75
2023/07/28 09:53:43;;;;;;;;;;;;;;;;;;5022682;28;19925;-76
2023/07/28 09:56:13;;;;;;;0.70;0.50;;;;;;;;;;5011051;28;20416;-75
2023/07/28 09:58:41;;;;;;;0.70;0.57;;;;;;;;;;4994605;28;20222;-75
2023/07/28 10:01:08;;;;;;;0.70;0.60;;;;;;;;;;5010820;28;20890;-76
2023/07/28 10:03:36;;;;;;;0.70;0.60;;;;;;;;;;5009937;28;21259;-75
2023/07/28 10:06:03;;;;;;;1.03;0.93;;;;;;;;;;4997303;28;20443;-75
2023/07/28 10:08:32;;;;;;;0.70;0.60;;;;;;;;;;5014990;28;20485;-75
2023/07/28 10:10:59;;;;;;;0.90;0.90;;;;;;;;;;5013958;28;20965;-76
2023/07/28 10:13:28;;;;;;;0.70;0.60;;;;;;;;;;5025711;28;20853;-75
2023/07/28 10:15:55;;;;;;;0.70;0.60;;;;;;;;;;5026306;28;20918;-76
2023/07/28 10:18:22;;;;;;;0.90;0.70;;;;;;;;;;5028282;28;20508;-77
2023/07/28 10:20:51;;;;;;;0.70;0.60;;;;;;;;;;5015231;28;20806;-75
2023/07/28 10:23:21;;;;;;;0.70;0.50;;;;;;;;;;5009447;28;20425;-77
2023/07/28 10:25:55;;;;;;;0.70;0.60;;;;;;;;;;5016832;28;20460;-76
2023/07/28 10:28:30;;;;;;;0.70;0.70;;;;;;;;;;5016991;28;20432;-76
2023/07/28 10:30:58;;;;;;;0.70;0.60;;;;;;;;;;5011342;28;20427;-79
2023/07/28 10:33:26;;;;;;;0.70;0.50;;;;;;;;;;5010715;28;20418;-77
2023/07/28 10:35:53;;;;;;;0.70;0.50;;;;;;;;;;5010738;28;20420;-76
2023/07/28 10:38:34;;;;;;;0.70;0.60;;;;;;;;;;5025783;28;20230;-77
2023/07/28 10:41:05;;;;;;;0.70;0.50;;;;;;;;;;5024041;28;20430;-77
2023/07/28 10:43:33;;;;;;;0.70;0.50;;;;;;;;;;5010370;28;20415;-79
2023/07/28 10:46:00;;;;;;;0.70;0.60;;;;;;;;;;5015274;28;20195;-80
2023/07/28 10:48:27;;;;;;;0.70;0.60;;;;;;;;;;5015685;28;20957;-77
2023/07/28 10:50:54;;;;;;;0.70;0.60;;;;;;;;;;5015610;28;20448;-76
2023/07/28 10:53:21;;;;;;;0.70;0.60;;;;;;;;;;5011368;28;20481;-77
2023/07/28 10:55:47;;;;;;;0.70;0.60;;;;;;;;;;4998349;28;20456;-78
2023/07/28 10:58:14;;;;;;;0.70;0.60;;;;;;;;;;5008531;28;20362;-76
2023/07/28 11:00:42;;;;;;;0.70;0.60;;;;;;;;;;5000769;28;20484;-75
2023/07/28 11:03:10;;;;;;;0.70;0.60;;;;;;;;;;5013251;28;21045;-76
2023/07/28 11:05:37;;;;;;;0.70;0.60;;;;;;;;;;5021345;28;20484;-77
2023/07/28 11:08:07;;;;;;;0.70;0.50;;;;;;;;;;5015439;28;20476;-77
2023/07/28 11:10:35;;;;;;;0.70;0.60;;;;;;;;;;5027193;28;20448;-77
2023/07/28 11:13:02;;;;;;;0.70;0.60;;;;;;;;;;5024288;28;20785;-77
2023/07/28 11:15:48;;;;;;;1.13;0.80;;;;;;;;;;5027962;28;20434;-79
2023/07/28 11:18:15;;;;;;;0.70;0.60;;;;;;;;;;5024596;28;20917;-79
2023/07/28 11:20:42;;;;;;;0.70;0.50;;;;;;;;;;5016970;28;20453;-80
2023/07/28 11:23:09;;;;;;;0.70;0.60;;;;;;;;;;5028040;28;20568;-78
2023/07/28 11:25:35;;;;;;;0.70;0.60;;;;;;;;;;5011248;28;20469;-79
2023/07/28 11:28:05;;;;;;;0.70;0.60;;;;;;;;;;5012831;28;20437;-78
2023/07/28 11:30:35;;;;;;;0.70;0.60;;;;;;;;;;5009981;28;20444;-78
2023/07/28 11:33:02;;;;;;;;;;;;;;;;;;5012603;28;20289;-78
2023/07/28 11:35:31;;;;;;;0.70;0.50;;;;;;;;;;5011645;28;20434;-79
2023/07/28 11:37:58;;;;;;;0.70;0.50;;;;;;;;;;5008916;28;20425;-77
2023/07/28 11:40:25;;;;;;;;;;;;;;;;;;5012905;28;20284;-80
2023/07/28 11:42:53;;;;;;;0.70;0.50;;;;;;;;;;4998326;28;20843;-78
2023/07/28 11:45:22;;;;;;;0.70;0.50;;;;;;;;;;5026302;28;20198;-79
2023/07/28 11:47:56;;;;;;;0.70;0.60;;;;;;;;;;5015004;28;20445;-77
2023/07/28 11:50:22;;;;;;;;;;;;;;;;;;5014404;28;20280;-79
2023/07/28 11:52:49;;;;;;;;;;;;;;;;;;5014531;28;19928;-80
2023/07/28 11:55:18;;;;;;;0.80;0.60;;;;;;;;;;5008402;28;20209;-82
2023/07/28 11:57:44;;;;;;;;;;;;;;;;;;5017499;28;20638;-79
2023/07/28 12:00:16;;;;;;;;;;;;;;;;;;5015206;28;19929;-77
2023/07/28 12:02:43;;;;;;;;;;;;;;;;;;5016822;28;19921;-77
2023/07/28 12:05:09;;;;;;;;;;;;;;;;;;5012707;28;19920;-81
2023/07/28 12:07:36;;;;;;;;;;;;;;;;;;5007818;28;19999;-79
2023/07/28 12:10:06;;;;;;;0.70;0.60;;;;;;;;;;4991023;28;20204;-81
2023/07/28 12:12:33;;;;;;;;;;;;;;;;;;5001066;28;20354;-80
2023/07/28 12:15:18;;;;;;;0.70;0.60;;;;;;;;;;5035434;28;20233;-81
2023/07/28 12:18:03;;;;;;;0.70;0.60;;;;;;;;;;5025686;28;20433;-80
2023/07/28 12:20:33;;;;;;;;;;;;;;;;;;5012835;28;20902;-79
2023/07/28 12:23:02;;;;;;;0.70;0.50;;;;;;;;;;5018679;28;20459;-82
2023/07/28 12:25:32;;;;;;;1.10;1.00;;;;;;;;;;5027087;28;20190;-80
2023/07/28 12:27:59;;;;;;;0.70;0.50;;;;;;;;;;5015688;28;20925;-80
2023/07/28 12:30:27;;;;;;;0.70;0.50;;;;;;;;;;5015380;28;20207;-81
2023/07/28 12:32:54;;;;;;;0.70;0.50;;;;;;;;;;5023757;28;20495;-81
2023/07/28 12:35:24;;;;;;;0.70;0.60;;;;;;;;;;5016363;28;20322;-81
2023/07/28 12:38:11;;;;;;;0.93;0.80;;;;;;;;;;5011972;28;20996;-80
2023/07/28 12:40:40;;;;;;;0.70;0.60;;;;;;;;;;5028860;28;20437;-80
2023/07/28 12:43:10;;;;;;;0.70;0.60;;;;;;;;;;5015152;28;21011;-82
2023/07/28 12:45:58;;;;;;;0.70;0.50;;;;;;;;;;5013058;28;20509;-79
2023/07/28 12:48:27;;;;;;;0.80;0.73;;;;;;;;;;5026552;28;20433;-78
2023/07/28 12:50:54;;;;;;;0.70;0.60;;;;;;;;;;5013494;28;20496;-78
2023/07/28 12:53:24;;;;;;;0.70;0.50;;;;;;;;;;5011638;28;20905;-79
2023/07/28 12:55:51;;;;;;;0.70;0.60;;;;;;;;;;5017084;28;20636;-78
2023/07/28 12:58:20;;;;;;;0.70;0.60;;;;;;;;;;5014720;28;20883;-80
2023/07/28 13:00:50;;;;;;;0.80;0.70;;;;;;;;;;5012911;28;20492;-79
2023/07/28 13:03:22;;;;;;;0.70;0.60;;;;;;;;;;5026121;28;20519;-80
2023/07/28 13:05:49;;;;;;;0.70;0.60;;;;;;;;;;5019511;28;20940;-80
2023/07/28 13:08:16;;;;;;;;;;;;;;;;;;5012034;28;20776;-78
2023/07/28 13:10:43;;;;;;;0.70;0.50;;;;;;;;;;5011481;28;20458;-79
2023/07/28 13:13:12;;;;;;;0.70;0.50;;;;;;;;;;5021585;28;20438;-79
2023/07/28 13:15:40;;;;;;;;;;;;;;;;;;5019452;28;20338;-76
2023/07/28 13:18:07;;;;;;;0.75;0.50;;;;;;;;;;5001613;28;20499;-79
2023/07/28 13:20:36;;;;;;;0.70;0.60;;;;;;;;;;5030307;28;20190;-79
2023/07/28 13:23:03;;;;;;;0.70;0.60;;;;;;;;;;5009936;28;20496;-79
2023/07/28 13:25:30;;;;;;;0.70;0.60;;;;;;;;;;5027713;28;20874;-78
2023/07/28 13:27:57;;;;;;;0.70;0.60;;;;;;;;;;5012013;28;20449;-80
2023/07/28 13:30:24;;;;;;;0.70;0.60;;;;;;;;;;5027897;28;20432;-77
2023/07/28 13:32:53;;;;;;;0.70;0.50;;;;;;;;;;5012729;28;20452;-78
2023/07/28 13:35:20;;;;;;;0.70;0.60;;;;;;;;;;5017049;28;20452;-80
2023/07/28 13:37:48;;;;;;;0.70;0.60;;;;;;;;;;5015934;28;20459;-80
2023/07/28 13:40:14;;;;;;;0.90;0.80;;;;;;;;;;5014616;28;20455;-79
2023/07/28 13:42:43;;;;;;;0.70;0.60;;;;;;;;;;5012068;28;20500;-79
2023/07/28 13:45:10;;;;;;;0.70;0.60;;;;;;;;;;5013302;28;20452;-80
2023/07/28 13:47:36;;;;;;;0.70;0.60;;;;;;;;;;5005178;28;20453;-79
2023/07/28 13:50:04;;;;;;;0.70;0.53;;;;;;;;;;5028855;28;20487;-80
2023/07/28 13:52:31;;;;;;;0.70;0.60;;;;;;;;;;5013703;28;20415;-77
2023/07/28 13:54:59;;;;;;;0.70;0.50;;;;;;;;;;5012771;28;20202;-80
2023/07/28 13:57:29;;;;;;;0.80;0.70;;;;;;;;;;5016611;28;20433;-75
2023/07/28 13:59:55;;;;;;;0.70;0.50;;;;;;;;;;5021761;28;20472;-75
2023/07/28 14:02:22;;;;;;;0.70;0.60;;;;;;;;;;5028535;28;20464;-76
2023/07/28 14:04:50;;;;;;;;;;;;;;;;;;5007568;28;20288;-75
2023/07/28 14:07:17;;;;;;;0.70;0.60;;;;;;;;;;5007728;28;20203;-76
2023/07/28 14:09:43;;;;;;;0.80;0.60;;;;;;;;;;4992923;28;20449;-74
2023/07/28 14:12:11;;;;;;;0.70;0.50;;;;;;;;;;5022980;28;20429;-76
2023/07/28 14:14:38;;;;;;;0.70;0.50;;;;;;;;;;5032297;28;20516;-75
2023/07/28 14:17:05;;;;;;;0.80;0.70;;;;;;;;;;5027384;28;20436;-78
2023/07/28 14:19:32;;;;;;;0.70;0.50;;;;;;;;;;5027358;28;20433;-76
2023/07/28 14:21:58;;;;;;;0.70;0.50;;;;;;;;;;5006044;28;20826;-75
2023/07/28 14:24:25;;;;;;;1.10;0.60;;;;;;;;;;5005755;28;20852;-75
2023/07/28 14:26:51;;;;;;;0.70;0.50;;;;;;;;;;5007500;28;20469;-74
2023/07/28 14:29:19;;;;;;;0.70;0.50;;;;;;;;;;5013024;28;20767;-75
2023/07/28 14:31:46;;;;;;;0.70;0.50;;;;;;;;;;5010211;28;20286;-74
2023/07/28 14:34:13;;;;;;;0.70;0.60;;;;;;;;;;5006886;28;20778;-75
2023/07/28 14:36:40;;;;;;;0.70;0.50;;;;;;;;;;5027018;28;20472;-75
2023/07/28 14:39:06;;;;;;;0.70;0.60;;;;;;;;;;5013739;28;20461;-75
2023/07/28 14:41:33;;;;;;;0.70;0.50;;;;;;;;;;5030204;28;20523;-75
2023/07/28 14:44:00;;;;;;;0.70;0.60;;;;;;;;;;5006936;28;20469;-76
2023/07/28 14:46:28;;;;;;;0.70;0.60;;;;;;;;;;5030636;28;20436;-76
2023/07/28 14:48:55;;;;;;;0.70;0.60;;;;;;;;;;5014471;28;20455;-76
2023/07/28 14:51:22;;;;;;;0.70;0.57;;;;;;;;;;5009237;28;20460;-74
2023/07/28 14:53:49;;;;;;;0.70;0.60;;;;;;;;;;5013481;28;20462;-75
2023/07/28 14:56:16;;;;;;;0.70;0.60;;;;;;;;;;5024787;28;20437;-77